sensor_id;sensor_type;location;lat;lon;timestamp;P1;durP1;ratioP1;P2;durP2;ratioP2
25917;SDS011;13899;51.174;4.456;2023-05-10T00:02:06;16.83;;;14.88;;
25917;SDS011;13899;51.174;4.456;2023-05-10T00:04:32;17.03;;;14.17;;
25917;SDS011;13899;51.174;4.456;2023-05-10T00:06:58;18.02;;;12.90;;
25917;SDS011;13899;51.174;4.456;2023-05-10T00:09:24;20.80;;;13.00;;
25917;SDS011;13899;51.174;4.456;2023-05-10T00:11:49;15.52;;;12.43;;
25917;SDS011;13899;51.174;4.456;2023-05-10T00:14:16;17.80;;;12.43;;
25917;SDS011;13899;51.174;4.456;2023-05-10T00:16:42;16.10;;;10.95;;
25917;SDS011;13899;51.174;4.456;2023-05-10T00:19:07;15.38;;;11.82;;
25917;SDS011;13899;51.174;4.456;2023-05-10T00:21:33;21.10;;;12.57;;
25917;SDS011;13899;51.174;4.456;2023-05-10T00:23:59;14.40;;;12.38;;
25917;SDS011;13899;51.174;4.456;2023-05-10T00:26:25;18.55;;;12.30;;
25917;SDS011;13899;51.174;4.456;2023-05-10T00:28:51;15.10;;;12.57;;
25917;SDS011;13899;51.174;4.456;2023-05-10T00:31:16;12.60;;;11.30;;
25917;SDS011;13899;51.174;4.456;2023-05-10T00:33:42;22.27;;;13.75;;
25917;SDS011;13899;51.174;4.456;2023-05-10T00:36:08;16.73;;;12.33;;
25917;SDS011;13899;51.174;4.456;2023-05-10T00:38:33;21.17;;;13.43;;
25917;SDS011;13899;51.174;4.456;2023-05-10T00:40:59;26.67;;;13.77;;
25917;SDS011;13899;51.174;4.456;2023-05-10T00:43:25;18.50;;;14.30;;
25917;SDS011;13899;51.174;4.456;2023-05-10T00:45:50;22.83;;;13.50;;
25917;SDS011;13899;51.174;4.456;2023-05-10T00:48:17;25.20;;;13.77;;
25917;SDS011;13899;51.174;4.456;2023-05-10T00:50:43;15.55;;;13.52;;
25917;SDS011;13899;51.174;4.456;2023-05-10T00:53:09;20.38;;;14.73;;
25917;SDS011;13899;51.174;4.456;2023-05-10T00:55:35;17.27;;;13.45;;
25917;SDS011;13899;51.174;4.456;2023-05-10T00:58:02;22.33;;;14.13;;
25917;SDS011;13899;51.174;4.456;2023-05-10T01:00:28;25.83;;;14.83;;
25917;SDS011;13899;51.174;4.456;2023-05-10T01:02:54;25.50;;;14.80;;
25917;SDS011;13899;51.174;4.456;2023-05-10T01:05:20;17.42;;;13.63;;
25917;SDS011;13899;51.174;4.456;2023-05-10T01:07:46;16.43;;;13.30;;
25917;SDS011;13899;51.174;4.456;2023-05-10T01:10:12;21.25;;;15.40;;
25917;SDS011;13899;51.174;4.456;2023-05-10T01:12:38;19.33;;;14.00;;
25917;SDS011;13899;51.174;4.456;2023-05-10T01:15:06;22.95;;;14.20;;
25917;SDS011;13899;51.174;4.456;2023-05-10T01:17:34;30.05;;;17.40;;
25917;SDS011;13899;51.174;4.456;2023-05-10T01:20:02;29.42;;;16.48;;
25917;SDS011;13899;51.174;4.456;2023-05-10T01:33:39;29.23;;;19.02;;
25917;SDS011;13899;51.174;4.456;2023-05-10T01:36:35;29.92;;;17.52;;
25917;SDS011;13899;51.174;4.456;2023-05-10T01:42:07;25.95;;;16.38;;
25917;SDS011;13899;51.174;4.456;2023-05-10T01:47:20;26.10;;;17.33;;
25917;SDS011;13899;51.174;4.456;2023-05-10T01:50:00;26.23;;;17.55;;
25917;SDS011;13899;51.174;4.456;2023-05-10T01:52:38;21.77;;;17.50;;
25917;SDS011;13899;51.174;4.456;2023-05-10T01:55:09;30.02;;;18.08;;
25917;SDS011;13899;51.174;4.456;2023-05-10T01:57:39;22.67;;;16.23;;
25917;SDS011;13899;51.174;4.456;2023-05-10T02:00:09;30.75;;;18.02;;
25917;SDS011;13899;51.174;4.456;2023-05-10T02:02:37;21.15;;;16.60;;
25917;SDS011;13899;51.174;4.456;2023-05-10T02:05:05;25.10;;;16.55;;
25917;SDS011;13899;51.174;4.456;2023-05-10T02:07:33;24.70;;;17.40;;
25917;SDS011;13899;51.174;4.456;2023-05-10T02:10:01;26.88;;;17.60;;
25917;SDS011;13899;51.174;4.456;2023-05-10T02:12:29;26.42;;;19.23;;
25917;SDS011;13899;51.174;4.456;2023-05-10T02:15:00;26.10;;;19.05;;
25917;SDS011;13899;51.174;4.456;2023-05-10T02:17:28;24.13;;;18.58;;
25917;SDS011;13899;51.174;4.456;2023-05-10T02:19:56;22.90;;;17.15;;
25917;SDS011;13899;51.174;4.456;2023-05-10T02:22:24;22.75;;;15.90;;
25917;SDS011;13899;51.174;4.456;2023-05-10T02:24:52;22.60;;;15.85;;
25917;SDS011;13899;51.174;4.456;2023-05-10T02:27:20;23.20;;;16.92;;
25917;SDS011;13899;51.174;4.456;2023-05-10T02:29:49;25.58;;;17.10;;
25917;SDS011;13899;51.174;4.456;2023-05-10T02:32:16;21.95;;;17.00;;
25917;SDS011;13899;51.174;4.456;2023-05-10T02:37:10;31.45;;;18.63;;
25917;SDS011;13899;51.174;4.456;2023-05-10T02:39:39;27.73;;;18.10;;
25917;SDS011;13899;51.174;4.456;2023-05-10T02:42:10;30.02;;;19.50;;
25917;SDS011;13899;51.174;4.456;2023-05-10T02:44:42;25.80;;;19.70;;
25917;SDS011;13899;51.174;4.456;2023-05-10T02:47:10;37.10;;;20.60;;
25917;SDS011;13899;51.174;4.456;2023-05-10T02:49:36;30.63;;;20.53;;
25917;SDS011;13899;51.174;4.456;2023-05-10T02:52:03;39.43;;;22.17;;
25917;SDS011;13899;51.174;4.456;2023-05-10T02:54:37;27.73;;;20.10;;
25917;SDS011;13899;51.174;4.456;2023-05-10T02:57:08;30.92;;;21.08;;
25917;SDS011;13899;51.174;4.456;2023-05-10T02:59:40;37.08;;;22.75;;
25917;SDS011;13899;51.174;4.456;2023-05-10T03:02:07;42.25;;;25.50;;
25917;SDS011;13899;51.174;4.456;2023-05-10T03:04:34;60.45;;;32.13;;
25917;SDS011;13899;51.174;4.456;2023-05-10T03:07:00;58.53;;;32.13;;
25917;SDS011;13899;51.174;4.456;2023-05-10T03:09:26;65.57;;;32.95;;
25917;SDS011;13899;51.174;4.456;2023-05-10T03:14:45;122.30;;;52.63;;
25917;SDS011;13899;51.174;4.456;2023-05-10T03:22:28;132.25;;;54.40;;
25917;SDS011;13899;51.174;4.456;2023-05-10T03:24:57;123.35;;;56.30;;
25917;SDS011;13899;51.174;4.456;2023-05-10T03:27:26;116.88;;;53.13;;
25917;SDS011;13899;51.174;4.456;2023-05-10T03:29:53;117.63;;;52.88;;
25917;SDS011;13899;51.174;4.456;2023-05-10T03:32:21;97.20;;;44.63;;
25917;SDS011;13899;51.174;4.456;2023-05-10T03:34:47;88.47;;;40.63;;
25917;SDS011;13899;51.174;4.456;2023-05-10T03:37:13;73.68;;;38.53;;
25917;SDS011;13899;51.174;4.456;2023-05-10T03:39:38;70.23;;;35.97;;
25917;SDS011;13899;51.174;4.456;2023-05-10T03:42:04;72.93;;;35.13;;
25917;SDS011;13899;51.174;4.456;2023-05-10T03:44:30;61.83;;;31.83;;
25917;SDS011;13899;51.174;4.456;2023-05-10T03:46:58;57.50;;;30.27;;
25917;SDS011;13899;51.174;4.456;2023-05-10T03:49:23;67.60;;;33.80;;
25917;SDS011;13899;51.174;4.456;2023-05-10T03:51:49;63.50;;;31.45;;
25917;SDS011;13899;51.174;4.456;2023-05-10T03:54:15;64.43;;;33.50;;
25917;SDS011;13899;51.174;4.456;2023-05-10T03:56:40;61.80;;;32.70;;
25917;SDS011;13899;51.174;4.456;2023-05-10T03:59:06;64.80;;;31.92;;
25917;SDS011;13899;51.174;4.456;2023-05-10T04:01:33;68.60;;;33.03;;
25917;SDS011;13899;51.174;4.456;2023-05-10T04:03:59;73.55;;;33.15;;
25917;SDS011;13899;51.174;4.456;2023-05-10T04:06:25;71.80;;;31.90;;
25917;SDS011;13899;51.174;4.456;2023-05-10T04:08:51;78.37;;;34.67;;
25917;SDS011;13899;51.174;4.456;2023-05-10T04:11:16;75.05;;;35.05;;
25917;SDS011;13899;51.174;4.456;2023-05-10T04:13:42;78.47;;;35.80;;
25917;SDS011;13899;51.174;4.456;2023-05-10T04:16:08;73.60;;;34.33;;
25917;SDS011;13899;51.174;4.456;2023-05-10T04:18:34;77.53;;;34.17;;
25917;SDS011;13899;51.174;4.456;2023-05-10T04:21:00;73.25;;;31.90;;
25917;SDS011;13899;51.174;4.456;2023-05-10T04:23:26;69.03;;;32.60;;
25917;SDS011;13899;51.174;4.456;2023-05-10T04:25:52;73.60;;;32.78;;
25917;SDS011;13899;51.174;4.456;2023-05-10T04:28:24;62.22;;;30.88;;
25917;SDS011;13899;51.174;4.456;2023-05-10T04:30:49;60.63;;;30.27;;
25917;SDS011;13899;51.174;4.456;2023-05-10T04:33:15;62.87;;;29.73;;
25917;SDS011;13899;51.174;4.456;2023-05-10T04:35:40;55.10;;;26.47;;
25917;SDS011;13899;51.174;4.456;2023-05-10T04:38:06;51.97;;;25.50;;
25917;SDS011;13899;51.174;4.456;2023-05-10T04:40:32;50.40;;;25.43;;
25917;SDS011;13899;51.174;4.456;2023-05-10T04:42:57;50.73;;;24.77;;
25917;SDS011;13899;51.174;4.456;2023-05-10T04:45:23;47.15;;;26.20;;
25917;SDS011;13899;51.174;4.456;2023-05-10T04:47:49;50.13;;;24.58;;
25917;SDS011;13899;51.174;4.456;2023-05-10T04:50:14;52.60;;;26.23;;
25917;SDS011;13899;51.174;4.456;2023-05-10T04:52:40;48.00;;;25.00;;
25917;SDS011;13899;51.174;4.456;2023-05-10T04:57:35;49.05;;;24.85;;
25917;SDS011;13899;51.174;4.456;2023-05-10T05:00:00;48.30;;;26.93;;
25917;SDS011;13899;51.174;4.456;2023-05-10T05:02:26;48.60;;;27.33;;
25917;SDS011;13899;51.174;4.456;2023-05-10T05:04:52;54.27;;;27.27;;
25917;SDS011;13899;51.174;4.456;2023-05-10T05:07:18;54.63;;;27.58;;
25917;SDS011;13899;51.174;4.456;2023-05-10T05:09:43;61.97;;;28.73;;
25917;SDS011;13899;51.174;4.456;2023-05-10T05:12:09;55.00;;;28.83;;
25917;SDS011;13899;51.174;4.456;2023-05-10T05:14:39;53.72;;;28.58;;
25917;SDS011;13899;51.174;4.456;2023-05-10T05:17:05;61.17;;;28.83;;
25917;SDS011;13899;51.174;4.456;2023-05-10T05:19:31;48.63;;;28.25;;
25917;SDS011;13899;51.174;4.456;2023-05-10T05:21:56;54.00;;;28.17;;
25917;SDS011;13899;51.174;4.456;2023-05-10T05:24:22;49.50;;;27.50;;
25917;SDS011;13899;51.174;4.456;2023-05-10T05:26:48;49.17;;;28.77;;
25917;SDS011;13899;51.174;4.456;2023-05-10T05:29:14;50.73;;;28.33;;
25917;SDS011;13899;51.174;4.456;2023-05-10T05:31:39;45.35;;;26.65;;
25917;SDS011;13899;51.174;4.456;2023-05-10T05:34:05;53.85;;;28.50;;
25917;SDS011;13899;51.174;4.456;2023-05-10T05:36:31;49.42;;;27.63;;
25917;SDS011;13899;51.174;4.456;2023-05-10T05:38:57;55.72;;;27.27;;
25917;SDS011;13899;51.174;4.456;2023-05-10T05:41:23;56.33;;;29.67;;
25917;SDS011;13899;51.174;4.456;2023-05-10T05:43:49;49.70;;;28.80;;
25917;SDS011;13899;51.174;4.456;2023-05-10T05:46:15;55.72;;;29.15;;
25917;SDS011;13899;51.174;4.456;2023-05-10T05:48:41;49.60;;;28.73;;
25917;SDS011;13899;51.174;4.456;2023-05-10T05:51:06;52.78;;;30.17;;
25917;SDS011;13899;51.174;4.456;2023-05-10T05:53:32;46.00;;;28.50;;
25917;SDS011;13899;51.174;4.456;2023-05-10T05:55:58;42.80;;;26.23;;
25917;SDS011;13899;51.174;4.456;2023-05-10T05:58:24;40.63;;;26.40;;
25917;SDS011;13899;51.174;4.456;2023-05-10T06:00:51;40.42;;;25.90;;
25917;SDS011;13899;51.174;4.456;2023-05-10T06:03:17;35.38;;;23.50;;
25917;SDS011;13899;51.174;4.456;2023-05-10T06:05:49;33.90;;;23.65;;
25917;SDS011;13899;51.174;4.456;2023-05-10T06:08:15;35.97;;;25.57;;
25917;SDS011;13899;51.174;4.456;2023-05-10T06:10:40;32.03;;;22.98;;
25917;SDS011;13899;51.174;4.456;2023-05-10T06:13:06;36.75;;;24.00;;
25917;SDS011;13899;51.174;4.456;2023-05-10T06:15:32;32.97;;;22.80;;
25917;SDS011;13899;51.174;4.456;2023-05-10T06:17:58;32.33;;;23.07;;
25917;SDS011;13899;51.174;4.456;2023-05-10T06:20:24;34.35;;;24.23;;
25917;SDS011;13899;51.174;4.456;2023-05-10T06:22:50;25.47;;;22.37;;
25917;SDS011;13899;51.174;4.456;2023-05-10T06:25:15;30.73;;;21.63;;
25917;SDS011;13899;51.174;4.456;2023-05-10T06:27:43;31.27;;;22.05;;
25917;SDS011;13899;51.174;4.456;2023-05-10T06:30:09;33.78;;;23.50;;
25917;SDS011;13899;51.174;4.456;2023-05-10T06:32:36;34.10;;;23.77;;
25917;SDS011;13899;51.174;4.456;2023-05-10T06:35:02;38.67;;;25.60;;
25917;SDS011;13899;51.174;4.456;2023-05-10T06:37:27;44.20;;;27.10;;
25917;SDS011;13899;51.174;4.456;2023-05-10T06:39:53;45.78;;;28.05;;
25917;SDS011;13899;51.174;4.456;2023-05-10T06:42:19;44.23;;;28.33;;
25917;SDS011;13899;51.174;4.456;2023-05-10T06:44:44;43.07;;;28.70;;
25917;SDS011;13899;51.174;4.456;2023-05-10T06:47:10;40.40;;;28.10;;
25917;SDS011;13899;51.174;4.456;2023-05-10T06:49:35;40.53;;;27.07;;
25917;SDS011;13899;51.174;4.456;2023-05-10T06:52:02;42.20;;;27.10;;
25917;SDS011;13899;51.174;4.456;2023-05-10T06:54:27;37.97;;;26.33;;
25917;SDS011;13899;51.174;4.456;2023-05-10T06:56:53;38.83;;;27.25;;
25917;SDS011;13899;51.174;4.456;2023-05-10T06:59:19;38.08;;;26.85;;
25917;SDS011;13899;51.174;4.456;2023-05-10T07:01:46;36.25;;;26.55;;
25917;SDS011;13899;51.174;4.456;2023-05-10T07:04:12;40.23;;;25.87;;
25917;SDS011;13899;51.174;4.456;2023-05-10T07:06:38;37.17;;;26.35;;
25917;SDS011;13899;51.174;4.456;2023-05-10T07:09:04;29.42;;;23.00;;
25917;SDS011;13899;51.174;4.456;2023-05-10T07:11:30;40.17;;;25.33;;
25917;SDS011;13899;51.174;4.456;2023-05-10T07:13:56;36.47;;;25.58;;
25917;SDS011;13899;51.174;4.456;2023-05-10T07:16:22;36.40;;;25.77;;
25917;SDS011;13899;51.174;4.456;2023-05-10T07:18:47;40.42;;;26.70;;
25917;SDS011;13899;51.174;4.456;2023-05-10T07:21:15;38.20;;;27.00;;
25917;SDS011;13899;51.174;4.456;2023-05-10T07:23:41;48.73;;;28.87;;
25917;SDS011;13899;51.174;4.456;2023-05-10T07:26:06;38.50;;;26.58;;
25917;SDS011;13899;51.174;4.456;2023-05-10T07:28:32;32.50;;;25.88;;
25917;SDS011;13899;51.174;4.456;2023-05-10T07:30:58;30.63;;;23.88;;
25917;SDS011;13899;51.174;4.456;2023-05-10T07:33:23;34.00;;;23.43;;
25917;SDS011;13899;51.174;4.456;2023-05-10T07:35:49;27.70;;;23.23;;
25917;SDS011;13899;51.174;4.456;2023-05-10T07:38:15;25.13;;;22.60;;
25917;SDS011;13899;51.174;4.456;2023-05-10T07:40:42;30.05;;;24.17;;
25917;SDS011;13899;51.174;4.456;2023-05-10T07:43:08;30.03;;;23.83;;
25917;SDS011;13899;51.174;4.456;2023-05-10T07:45:33;26.60;;;22.63;;
25917;SDS011;13899;51.174;4.456;2023-05-10T07:47:59;27.43;;;23.10;;
25917;SDS011;13899;51.174;4.456;2023-05-10T07:50:25;26.60;;;21.00;;
25917;SDS011;13899;51.174;4.456;2023-05-10T07:52:51;21.23;;;18.60;;
25917;SDS011;13899;51.174;4.456;2023-05-10T07:55:18;19.73;;;17.73;;
25917;SDS011;13899;51.174;4.456;2023-05-10T07:57:43;19.92;;;17.73;;
25917;SDS011;13899;51.174;4.456;2023-05-10T08:00:18;20.27;;;18.25;;
25917;SDS011;13899;51.174;4.456;2023-05-10T08:02:45;20.73;;;18.73;;
25917;SDS011;13899;51.174;4.456;2023-05-10T08:05:11;29.92;;;19.88;;
25917;SDS011;13899;51.174;4.456;2023-05-10T08:07:37;22.97;;;20.63;;
25917;SDS011;13899;51.174;4.456;2023-05-10T08:10:03;20.85;;;18.85;;
25917;SDS011;13899;51.174;4.456;2023-05-10T08:12:29;32.40;;;25.27;;
25917;SDS011;13899;51.174;4.456;2023-05-10T08:14:55;30.53;;;24.80;;
25917;SDS011;13899;51.174;4.456;2023-05-10T08:17:21;29.60;;;25.00;;
25917;SDS011;13899;51.174;4.456;2023-05-10T08:19:46;21.17;;;19.07;;
25917;SDS011;13899;51.174;4.456;2023-05-10T08:22:12;20.37;;;18.27;;
25917;SDS011;13899;51.174;4.456;2023-05-10T08:24:38;26.23;;;21.80;;
25917;SDS011;13899;51.174;4.456;2023-05-10T08:27:07;27.63;;;21.80;;
25917;SDS011;13899;51.174;4.456;2023-05-10T08:29:37;23.90;;;21.55;;
25917;SDS011;13899;51.174;4.456;2023-05-10T08:32:02;23.80;;;21.30;;
25917;SDS011;13899;51.174;4.456;2023-05-10T08:34:29;25.97;;;20.23;;
25917;SDS011;13899;51.174;4.456;2023-05-10T08:36:56;22.40;;;20.05;;
25917;SDS011;13899;51.174;4.456;2023-05-10T08:39:22;24.00;;;21.50;;
25917;SDS011;13899;51.174;4.456;2023-05-10T08:41:53;27.05;;;21.27;;
25917;SDS011;13899;51.174;4.456;2023-05-10T08:44:23;23.83;;;21.27;;
25917;SDS011;13899;51.174;4.456;2023-05-10T08:46:48;21.67;;;19.53;;
25917;SDS011;13899;51.174;4.456;2023-05-10T08:49:18;23.60;;;21.35;;
25917;SDS011;13899;51.174;4.456;2023-05-10T08:51:53;22.75;;;20.35;;
25917;SDS011;13899;51.174;4.456;2023-05-10T08:54:21;22.50;;;19.40;;
25917;SDS011;13899;51.174;4.456;2023-05-10T08:56:47;20.75;;;18.80;;
25917;SDS011;13899;51.174;4.456;2023-05-10T08:59:13;20.23;;;18.23;;
25917;SDS011;13899;51.174;4.456;2023-05-10T09:01:39;19.83;;;17.73;;
25917;SDS011;13899;51.174;4.456;2023-05-10T09:04:07;23.15;;;19.58;;
25917;SDS011;13899;51.174;4.456;2023-05-10T09:06:33;21.70;;;19.30;;
25917;SDS011;13899;51.174;4.456;2023-05-10T09:08:59;20.45;;;18.30;;
25917;SDS011;13899;51.174;4.456;2023-05-10T09:11:26;18.45;;;16.75;;
25917;SDS011;13899;51.174;4.456;2023-05-10T09:13:54;18.77;;;16.55;;
25917;SDS011;13899;51.174;4.456;2023-05-10T09:16:20;18.05;;;16.27;;
25917;SDS011;13899;51.174;4.456;2023-05-10T09:18:46;17.10;;;15.48;;
25917;SDS011;13899;51.174;4.456;2023-05-10T09:21:12;17.57;;;15.43;;
25917;SDS011;13899;51.174;4.456;2023-05-10T09:23:42;19.50;;;16.85;;
25917;SDS011;13899;51.174;4.456;2023-05-10T09:26:08;17.70;;;15.88;;
25917;SDS011;13899;51.174;4.456;2023-05-10T09:28:34;17.23;;;14.50;;
25917;SDS011;13899;51.174;4.456;2023-05-10T09:31:18;18.27;;;15.00;;
25917;SDS011;13899;51.174;4.456;2023-05-10T09:33:45;18.38;;;15.07;;
25917;SDS011;13899;51.174;4.456;2023-05-10T09:36:12;28.73;;;16.67;;
25917;SDS011;13899;51.174;4.456;2023-05-10T09:38:45;19.80;;;15.18;;
25917;SDS011;13899;51.174;4.456;2023-05-10T09:41:16;24.45;;;16.50;;
25917;SDS011;13899;51.174;4.456;2023-05-10T09:43:46;24.13;;;15.77;;
25917;SDS011;13899;51.174;4.456;2023-05-10T09:46:12;26.37;;;15.67;;
25917;SDS011;13899;51.174;4.456;2023-05-10T09:51:06;20.80;;;15.25;;
25917;SDS011;13899;51.174;4.456;2023-05-10T09:53:32;17.70;;;13.93;;
25917;SDS011;13899;51.174;4.456;2023-05-10T09:55:57;20.52;;;14.65;;
25917;SDS011;13899;51.174;4.456;2023-05-10T09:58:23;12.82;;;11.45;;
25917;SDS011;13899;51.174;4.456;2023-05-10T10:00:49;21.80;;;14.10;;
25917;SDS011;13899;51.174;4.456;2023-05-10T10:03:20;22.35;;;13.50;;
25917;SDS011;13899;51.174;4.456;2023-05-10T10:05:46;21.20;;;13.65;;
25917;SDS011;13899;51.174;4.456;2023-05-10T10:08:14;20.38;;;14.18;;
25917;SDS011;13899;51.174;4.456;2023-05-10T10:10:44;20.75;;;13.23;;
25917;SDS011;13899;51.174;4.456;2023-05-10T10:15:36;16.93;;;11.50;;
25917;SDS011;13899;51.174;4.456;2023-05-10T10:18:02;18.80;;;10.97;;
25917;SDS011;13899;51.174;4.456;2023-05-10T10:20:30;14.65;;;12.65;;
25917;SDS011;13899;51.174;4.456;2023-05-10T10:22:56;13.53;;;10.67;;
25917;SDS011;13899;51.174;4.456;2023-05-10T10:25:22;16.10;;;11.13;;
25917;SDS011;13899;51.174;4.456;2023-05-10T10:33:13;19.42;;;11.27;;
25917;SDS011;13899;51.174;4.456;2023-05-10T10:35:36;13.80;;;11.77;;
25917;SDS011;13899;51.174;4.456;2023-05-10T10:38:02;13.87;;;12.37;;
25917;SDS011;13899;51.174;4.456;2023-05-10T10:40:31;17.35;;;12.65;;
25917;SDS011;13899;51.174;4.456;2023-05-10T10:43:00;15.30;;;11.90;;
25917;SDS011;13899;51.174;4.456;2023-05-10T10:46:27;13.50;;;11.07;;
25917;SDS011;13899;51.174;4.456;2023-05-10T10:48:47;13.98;;;11.77;;
25917;SDS011;13899;51.174;4.456;2023-05-10T10:51:37;14.20;;;10.43;;
25917;SDS011;13899;51.174;4.456;2023-05-10T10:54:10;13.55;;;11.55;;
25917;SDS011;13899;51.174;4.456;2023-05-10T10:56:36;11.57;;;10.35;;
25917;SDS011;13899;51.174;4.456;2023-05-10T10:59:02;13.10;;;10.07;;
25917;SDS011;13899;51.174;4.456;2023-05-10T11:01:32;16.20;;;11.77;;
25917;SDS011;13899;51.174;4.456;2023-05-10T11:06:29;12.27;;;10.37;;
25917;SDS011;13899;51.174;4.456;2023-05-10T11:08:59;13.77;;;11.45;;
25917;SDS011;13899;51.174;4.456;2023-05-10T11:11:50;15.43;;;11.38;;
25917;SDS011;13899;51.174;4.456;2023-05-10T11:16:51;16.17;;;11.27;;
25917;SDS011;13899;51.174;4.456;2023-05-10T11:19:17;16.15;;;10.75;;
25917;SDS011;13899;51.174;4.456;2023-05-10T11:21:48;13.18;;;10.68;;
25917;SDS011;13899;51.174;4.456;2023-05-10T11:24:19;13.95;;;11.02;;
25917;SDS011;13899;51.174;4.456;2023-05-10T11:26:45;12.70;;;9.82;;
25917;SDS011;13899;51.174;4.456;2023-05-10T11:29:14;17.10;;;11.38;;
25917;SDS011;13899;51.174;4.456;2023-05-10T11:31:44;12.80;;;11.13;;
25917;SDS011;13899;51.174;4.456;2023-05-10T11:34:11;13.85;;;11.07;;
25917;SDS011;13899;51.174;4.456;2023-05-10T11:36:50;12.00;;;10.87;;
25917;SDS011;13899;51.174;4.456;2023-05-10T11:39:18;14.48;;;10.95;;
25917;SDS011;13899;51.174;4.456;2023-05-10T11:41:46;12.60;;;11.30;;
25917;SDS011;13899;51.174;4.456;2023-05-10T11:44:14;11.75;;;10.65;;
25917;SDS011;13899;51.174;4.456;2023-05-10T11:46:40;13.23;;;11.03;;
25917;SDS011;13899;51.174;4.456;2023-05-10T11:49:06;11.70;;;10.50;;
25917;SDS011;13899;51.174;4.456;2023-05-10T11:51:35;12.75;;;10.43;;
25917;SDS011;13899;51.174;4.456;2023-05-10T11:54:04;12.05;;;10.45;;
25917;SDS011;13899;51.174;4.456;2023-05-10T11:56:39;12.25;;;10.27;;
25917;SDS011;13899;51.174;4.456;2023-05-10T11:59:06;12.07;;;10.88;;
25917;SDS011;13899;51.174;4.456;2023-05-10T12:01:33;12.95;;;10.15;;
25917;SDS011;13899;51.174;4.456;2023-05-10T12:03:59;11.80;;;9.82;;
25917;SDS011;13899;51.174;4.456;2023-05-10T12:06:26;11.70;;;10.02;;
25917;SDS011;13899;51.174;4.456;2023-05-10T12:08:54;10.93;;;9.63;;
25917;SDS011;13899;51.174;4.456;2023-05-10T12:11:20;11.67;;;9.40;;
25917;SDS011;13899;51.174;4.456;2023-05-10T12:13:50;11.05;;;9.07;;
25917;SDS011;13899;51.174;4.456;2023-05-10T12:16:17;10.65;;;9.52;;
25917;SDS011;13899;51.174;4.456;2023-05-10T12:18:43;12.00;;;10.55;;
25917;SDS011;13899;51.174;4.456;2023-05-10T12:21:10;10.55;;;9.50;;
25917;SDS011;13899;51.174;4.456;2023-05-10T12:26:03;15.05;;;10.18;;
25917;SDS011;13899;51.174;4.456;2023-05-10T12:28:29;11.33;;;9.93;;
25917;SDS011;13899;51.174;4.456;2023-05-10T12:30:57;11.98;;;10.73;;
25917;SDS011;13899;51.174;4.456;2023-05-10T12:33:23;13.57;;;10.50;;
25917;SDS011;13899;51.174;4.456;2023-05-10T12:35:50;11.43;;;10.32;;
25917;SDS011;13899;51.174;4.456;2023-05-10T12:38:31;11.43;;;9.73;;
25917;SDS011;13899;51.174;4.456;2023-05-10T12:41:12;10.27;;;9.10;;
25917;SDS011;13899;51.174;4.456;2023-05-10T12:43:39;10.90;;;9.88;;
25917;SDS011;13899;51.174;4.456;2023-05-10T12:46:06;11.20;;;8.90;;
25917;SDS011;13899;51.174;4.456;2023-05-10T12:48:33;10.50;;;9.40;;
25917;SDS011;13899;51.174;4.456;2023-05-10T12:50:59;11.68;;;9.70;;
25917;SDS011;13899;51.174;4.456;2023-05-10T12:55:51;10.20;;;9.00;;
25917;SDS011;13899;51.174;4.456;2023-05-10T12:58:18;11.18;;;9.43;;
25917;SDS011;13899;51.174;4.456;2023-05-10T13:00:43;11.38;;;10.20;;
25917;SDS011;13899;51.174;4.456;2023-05-10T13:03:09;11.13;;;10.03;;
25917;SDS011;13899;51.174;4.456;2023-05-10T13:05:35;11.23;;;10.10;;
25917;SDS011;13899;51.174;4.456;2023-05-10T13:08:01;12.05;;;10.07;;
25917;SDS011;13899;51.174;4.456;2023-05-10T13:10:28;10.73;;;9.63;;
25917;SDS011;13899;51.174;4.456;2023-05-10T13:12:55;13.57;;;10.23;;
25917;SDS011;13899;51.174;4.456;2023-05-10T13:15:22;11.90;;;10.70;;
25917;SDS011;13899;51.174;4.456;2023-05-10T13:17:47;11.87;;;9.73;;
25917;SDS011;13899;51.174;4.456;2023-05-10T13:20:13;10.95;;;9.38;;
25917;SDS011;13899;51.174;4.456;2023-05-10T13:22:39;12.25;;;9.85;;
25917;SDS011;13899;51.174;4.456;2023-05-10T13:25:06;12.38;;;10.10;;
25917;SDS011;13899;51.174;4.456;2023-05-10T13:27:32;13.27;;;9.03;;
25917;SDS011;13899;51.174;4.456;2023-05-10T13:29:57;11.57;;;9.47;;
25917;SDS011;13899;51.174;4.456;2023-05-10T13:32:24;11.18;;;10.23;;
25917;SDS011;13899;51.174;4.456;2023-05-10T13:34:50;10.52;;;9.50;;
25917;SDS011;13899;51.174;4.456;2023-05-10T13:37:16;11.70;;;10.60;;
25917;SDS011;13899;51.174;4.456;2023-05-10T13:39:42;12.05;;;10.63;;
25917;SDS011;13899;51.174;4.456;2023-05-10T13:42:07;15.73;;;10.27;;
25917;SDS011;13899;51.174;4.456;2023-05-10T13:44:33;12.18;;;10.57;;
25917;SDS011;13899;51.174;4.456;2023-05-10T13:46:59;13.00;;;11.70;;
25917;SDS011;13899;51.174;4.456;2023-05-10T13:49:24;12.37;;;10.90;;
25917;SDS011;13899;51.174;4.456;2023-05-10T13:51:50;12.97;;;10.97;;
25917;SDS011;13899;51.174;4.456;2023-05-10T13:54:17;12.05;;;10.10;;
25917;SDS011;13899;51.174;4.456;2023-05-10T13:56:44;14.57;;;11.25;;
25917;SDS011;13899;51.174;4.456;2023-05-10T13:59:12;11.23;;;10.15;;
25917;SDS011;13899;51.174;4.456;2023-05-10T14:01:39;14.32;;;9.57;;
25917;SDS011;13899;51.174;4.456;2023-05-10T14:04:05;17.90;;;10.75;;
25917;SDS011;13899;51.174;4.456;2023-05-10T14:06:32;11.88;;;10.63;;
25917;SDS011;13899;51.174;4.456;2023-05-10T14:11:24;13.43;;;12.10;;
25917;SDS011;13899;51.174;4.456;2023-05-10T14:13:50;12.97;;;11.77;;
25917;SDS011;13899;51.174;4.456;2023-05-10T14:16:15;13.73;;;11.98;;
25917;SDS011;13899;51.174;4.456;2023-05-10T14:18:41;14.38;;;12.43;;
25917;SDS011;13899;51.174;4.456;2023-05-10T14:21:06;12.73;;;11.43;;
25917;SDS011;13899;51.174;4.456;2023-05-10T14:23:32;15.90;;;11.18;;
25917;SDS011;13899;51.174;4.456;2023-05-10T14:25:58;12.85;;;11.23;;
25917;SDS011;13899;51.174;4.456;2023-05-10T14:28:23;13.33;;;11.93;;
25917;SDS011;13899;51.174;4.456;2023-05-10T14:30:51;14.27;;;12.77;;
25917;SDS011;13899;51.174;4.456;2023-05-10T14:33:16;16.13;;;12.90;;
25917;SDS011;13899;51.174;4.456;2023-05-10T14:35:42;17.00;;;12.65;;
25917;SDS011;13899;51.174;4.456;2023-05-10T14:38:10;15.23;;;12.18;;
25917;SDS011;13899;51.174;4.456;2023-05-10T14:40:35;14.10;;;12.77;;
25917;SDS011;13899;51.174;4.456;2023-05-10T14:43:01;14.13;;;11.32;;
25917;SDS011;13899;51.174;4.456;2023-05-10T14:45:27;14.00;;;12.68;;
25917;SDS011;13899;51.174;4.456;2023-05-10T14:47:52;15.47;;;12.70;;
25917;SDS011;13899;51.174;4.456;2023-05-10T14:50:18;14.20;;;12.73;;
25917;SDS011;13899;51.174;4.456;2023-05-10T14:52:44;14.43;;;12.93;;
25917;SDS011;13899;51.174;4.456;2023-05-10T14:55:09;13.45;;;12.15;;
25917;SDS011;13899;51.174;4.456;2023-05-10T14:57:35;15.93;;;12.50;;
25917;SDS011;13899;51.174;4.456;2023-05-10T15:00:02;13.57;;;12.27;;
25917;SDS011;13899;51.174;4.456;2023-05-10T15:02:28;13.57;;;12.30;;
25917;SDS011;13899;51.174;4.456;2023-05-10T15:04:55;9.90;;;8.70;;
25917;SDS011;13899;51.174;4.456;2023-05-10T15:09:48;8.40;;;7.60;;
25917;SDS011;13899;51.174;4.456;2023-05-10T15:12:13;6.97;;;6.05;;
25917;SDS011;13899;51.174;4.456;2023-05-10T15:14:39;5.27;;;4.73;;
25917;SDS011;13899;51.174;4.456;2023-05-10T15:17:05;6.40;;;5.63;;
25917;SDS011;13899;51.174;4.456;2023-05-10T15:19:32;5.57;;;3.05;;